GTRO2: Cimmarron R.,Guthrie, OK

Data processed at Sun Sep 23 2018 23:02


All information presented herein is the property of the government of the United States of America and may be revised or deleted at any time without prior notice.
Dissemination of this information without the expressed written consent of the Public Affairs Office, Tulsa District U.S. Army Corps of Engineers is strictly prohibited.
These data are gathered electronically and, as presented, have not undergone any form of quality control. These data are not guaranteed to be valid or correct.
Go to home page.
Go to station list.
Go to home page.

Upstream stations:

Downstream station:
Previous Day
Next Day
Current Day
    
SHEF ID:       GTRO2     Cimarron River near Guthrie, OK
STATION TYPE:  

               PRECIP     STAGE  RIV-FLOW  BAT-LOAD
                   in        ft       cfs      volt
              Ccp-Rev   Ccp-Rev   Ccp-Rev   Ccp-Rev
(US/Central)
09/23 00:00      0.00      8.98      2952     12.41
09/23 01:00      0.00      9.13      3161     12.41
09/23 02:00      0.00      9.31      3423     12.41
09/23 03:00      0.00      9.40      3558     12.41
09/23 04:00      0.00      9.46      3650     12.41
09/23 05:00      0.00      9.46      3650     12.33
09/23 06:00      0.00      9.43      3604     12.33
09/23 07:00      0.00      9.37      3513     12.33
09/23 08:00      0.00      9.34      3467     12.33
09/23 09:00      0.00      9.27      3363     12.33
09/23 10:00      0.00      9.16      3204     12.41
09/23 11:00      0.00      9.07      3076     12.65
09/23 12:00      0.00      8.98      2952     12.89
09/23 13:00      0.00      8.90      2844     13.13
09/23 14:00      0.00      8.79      2700     13.21
09/23 15:00      0.00      8.69      2572     13.13
09/23 16:00      0.00      8.57      2424     13.13
09/23 17:00      0.00      8.45      2281     13.05
09/23 18:00      0.00      8.34      2154     13.05
09/23 19:00      0.00      8.25      2054     12.73
09/23 20:00      0.00      8.16      1956     12.57
09/23 21:00      0.00      8.08      1872     12.49
09/23 22:00      0.00      8.00      1789     12.49
09/23 23:00      ----      ----      ----      ----